Time;durP1;ratioP1;P1;durP2;ratioP2;P2;SDS_P1;SDS_P2;PMS_P1;PMS_P2;Temp;Humidity;BMP_temperature;BMP_pressure;BME280_temperature;BME280_humidity;BME280_pressure;Samples;Min_cycle;Max_cycle;Signal;HPM_P1;HPM_P2
2022/09/19 00:01:43;;;;;;;4.00;1.90;;;;;;;8.17;89.01;98059.36;1753796;82;21006;-41
2022/09/19 00:04:19;;;;;;;5.37;1.70;;;;;;;8.13;88.92;98056.58;1753574;82;20991;-41
2022/09/19 00:06:48;;;;;;;5.65;2.30;;;;;;;8.05;88.86;98057.05;1753623;81;21414;-41
2022/09/19 00:09:18;;;;;;;5.00;1.77;;;;;;;8.06;88.71;98061.84;1753675;82;20982;-41
2022/09/19 00:11:46;;;;;;;4.67;2.08;;;;;;;8.02;88.96;98062.50;1753686;81;20992;-41
2022/09/19 00:14:16;;;;;;;3.92;1.70;;;;;;;8.00;89.42;98058.29;1753679;82;21002;-41
2022/09/19 00:16:45;;;;;;;3.58;1.80;;;;;;;8.03;89.03;98058.10;1753706;82;20987;-41
2022/09/19 00:19:16;;;;;;;5.58;1.80;;;;;;;8.01;89.21;98062.12;1753635;82;21457;-41
2022/09/19 00:21:46;;;;;;;2.62;1.70;;;;;;;7.98;89.35;98053.15;1752501;82;21030;-41
2022/09/19 00:27:03;;;;;;;5.87;2.25;;;;;;;7.96;89.14;98052.41;1753614;80;20994;-41
2022/09/19 00:29:28;;;;;;;4.95;1.82;;;;;;;8.00;88.30;98047.81;1753553;82;20995;-41
2022/09/19 00:31:54;;;;;;;3.37;2.00;;;;;;;7.94;88.47;98057.39;1753617;82;21023;-41
2022/09/19 00:34:20;;;;;;;4.75;2.55;;;;;;;7.94;88.78;98050.84;1753631;82;21341;-41
2022/09/19 00:36:47;;;;;;;3.35;1.90;;;;;;;7.85;89.98;98050.48;1753650;82;20995;-41
2022/09/19 00:39:16;;;;;;;8.35;2.17;;;;;;;7.81;90.16;98053.41;1753891;81;20992;-41
2022/09/19 00:41:42;;;;;;;3.60;2.10;;;;;;;7.84;89.38;98057.98;1753713;82;20987;-41
2022/09/19 00:44:29;;;;;;;5.28;2.30;;;;;;;7.82;89.50;98053.77;1753730;82;21544;-41
2022/09/19 00:46:59;;;;;;;2.77;1.80;;;;;;;7.84;89.37;98051.88;1753891;82;21042;-42
2022/09/19 00:49:29;;;;;;;6.47;2.12;;;;;;;7.82;90.06;98054.62;1752684;82;20983;-41
2022/09/19 00:52:00;;;;;;;2.65;2.10;;;;;;;7.79;90.48;98051.36;1753590;81;21043;-41
2022/09/19 00:54:34;;;;;;;4.00;2.17;;;;;;;7.79;90.00;98061.35;1753089;82;20992;-41
2022/09/19 00:57:03;;;;;;;2.70;2.20;;;;;;;7.78;90.53;98061.45;1753640;81;20985;-41
2022/09/19 00:59:33;;;;;;;2.27;1.77;;;;;;;7.80;90.19;98056.95;1753646;82;20955;-41
2022/09/19 01:02:04;;;;;;;3.20;2.20;;;;;;;7.83;89.83;98060.69;1753513;81;20979;-41
2022/09/19 01:04:30;;;;;;;3.47;2.50;;;;;;;7.78;90.74;98053.59;1753203;82;21448;-41
2022/09/19 01:07:03;;;;;;;;;;;;;;;7.77;90.92;98055.86;1756159;82;20972;-41
2022/09/19 01:10:06;;;;;;;5.83;2.37;;;;;;;7.79;90.72;98061.83;1753670;82;20208;-42
2022/09/19 01:12:47;;;;;;;5.08;2.50;;;;;;;7.79;90.57;98063.14;1753598;82;20998;-41
2022/09/19 01:15:36;;;;;;;2.92;2.00;;;;;;;7.81;90.35;98061.26;1753550;82;21515;-41
2022/09/19 01:18:02;;;;;;;4.83;2.47;;;;;;;7.84;90.49;98062.35;1753352;82;20980;-41
2022/09/19 01:20:50;;;;;;;4.30;2.27;;;;;;;7.80;90.45;98065.63;1753784;81;20960;-41
2022/09/19 01:24:19;;;;;;;3.83;2.35;;;;;;;7.73;90.81;98063.06;1753435;82;21042;-41
2022/09/19 01:26:58;;;;;;;5.17;2.47;;;;;;;7.80;90.45;98060.39;1752631;82;21018;-41
2022/09/19 01:29:45;;;;;;;3.37;2.37;;;;;;;7.78;90.79;98060.13;1753098;82;20971;-41
2022/09/19 01:32:18;;;;;;;4.30;2.47;;;;;;;7.79;90.72;98059.21;1752584;82;21030;-41
2022/09/19 01:34:50;;;;;;;4.10;2.47;;;;;;;7.83;90.67;98060.69;1753685;82;20959;-41
2022/09/19 01:37:27;;;;;;;3.08;2.22;;;;;;;7.86;90.81;98055.27;1726084;82;20974;-41
2022/09/19 01:39:56;;;;;;;5.80;2.55;;;;;;;7.88;90.88;98061.23;1753702;82;20990;-41
2022/09/19 01:42:22;;;;;;;3.60;2.47;;;;;;;7.83;91.24;98058.90;1753554;81;20986;-41
2022/09/19 01:44:50;;;;;;;4.55;3.12;;;;;;;7.86;91.10;98063.95;1753699;81;20986;-41
2022/09/19 01:47:25;;;;;;;6.22;2.45;;;;;;;7.87;90.92;98060.86;1753089;82;20998;-41
2022/09/19 01:50:05;;;;;;;8.33;3.20;;;;;;;7.80;91.42;98063.02;1739202;82;20956;-41
2022/09/19 01:53:07;;;;;;;3.60;2.75;;;;;;;7.87;91.25;98059.07;1739657;82;20991;-41
2022/09/19 01:55:53;;;;;;;7.50;3.50;;;;;;;7.86;91.33;98063.95;1739601;82;21004;-41
2022/09/19 01:58:46;;;;;;;6.00;3.90;;;;;;;7.89;91.05;98065.52;1739772;82;21039;-41
2022/09/19 02:01:39;;;;;;;7.85;4.45;;;;;;;7.94;90.98;98071.30;1739527;81;21484;-41
2022/09/19 02:04:20;;;;;;;6.83;4.17;;;;;;;7.94;90.75;98068.69;1739216;82;21039;-41
2022/09/19 02:07:24;;;;;;;5.33;4.47;;;;;;;7.76;92.07;98064.63;1739548;82;20996;-41
2022/09/19 02:10:05;;;;;;;5.53;4.42;;;;;;;7.82;91.79;98067.71;1739552;82;20976;-41
2022/09/19 02:12:35;;;;;;;7.03;5.03;;;;;;;7.81;91.78;98065.19;1739653;82;20992;-41
2022/09/19 02:15:04;;;;;;;9.13;5.10;;;;;;;7.81;92.04;98071.73;1739568;82;20968;-41
2022/09/19 02:17:44;;;;;;;7.37;5.37;;;;;;;7.82;91.79;98069.47;1718639;82;20999;-41
2022/09/19 02:20:13;;;;;;;7.53;5.42;;;;;;;7.85;91.56;98074.52;1738645;82;21523;-41
2022/09/19 02:22:45;;;;;;;9.98;5.17;;;;;;;7.91;91.67;98072.80;1738225;82;21031;-41
2022/09/19 02:25:21;;;;;;;5.62;5.12;;;;;;;7.90;91.35;98071.14;1739588;82;21521;-41
2022/09/19 02:28:00;;;;;;;9.53;5.83;;;;;;;7.90;92.03;98072.45;1739615;82;21063;-41
2022/09/19 02:30:27;;;;;;;7.45;5.40;;;;;;;7.92;91.34;98080.20;1737845;82;20984;-41
2022/09/19 02:32:54;;;;;;;5.92;5.30;;;;;;;7.96;91.44;98082.99;1739803;82;20972;-41
2022/09/19 02:35:43;;;;;;;6.20;5.20;;;;;;;7.96;91.16;98078.59;1739834;82;20996;-41
2022/09/19 02:38:49;;;;;;;8.03;5.40;;;;;;;7.98;90.95;98082.42;1739397;81;20968;-41
2022/09/19 02:41:46;;;;;;;6.87;5.25;;;;;;;7.96;90.83;98081.20;1737914;80;21191;-39
2022/09/19 02:44:21;;;;;;;8.73;6.10;;;;;;;7.99;91.03;98083.64;1689370;85;21834;-39
2022/09/19 02:47:21;;;;;;;7.28;6.17;;;;;;;7.93;91.43;98082.73;1689867;84;21585;-41
2022/09/19 02:50:13;;;;;;;11.40;6.78;;;;;;;7.91;91.30;98075.42;1690126;85;20996;-41
2022/09/19 02:52:41;;;;;;;14.33;7.42;;;;;;;7.91;90.73;98081.13;1690101;84;21049;-41
2022/09/19 02:55:15;;;;;;;10.82;6.97;;;;;;;7.92;91.37;98079.73;1690176;85;21052;-41
2022/09/19 02:57:47;;;;;;;11.50;6.60;;;;;;;7.86;91.40;98077.52;1690150;84;21001;-41
2022/09/19 03:00:15;;;;;;;12.35;7.55;;;;;;;7.90;91.41;98083.39;1690159;85;21050;-41
2022/09/19 03:02:56;;;;;;;14.43;8.78;;;;;;;7.81;91.84;98083.03;1690220;84;20993;-41
2022/09/19 03:05:26;;;;;;;13.53;9.10;;;;;;;7.84;91.38;98088.52;1689696;85;21016;-41
2022/09/19 03:08:03;;;;;;;10.43;8.45;;;;;;;7.82;91.95;98088.64;1690192;85;21009;-42
2022/09/19 03:10:37;;;;;;;9.20;7.87;;;;;;;7.87;91.70;98092.27;1690312;84;21020;-41
2022/09/19 03:13:08;;;;;;;14.00;8.30;;;;;;;7.88;91.65;98095.27;1690095;85;21008;-41
2022/09/19 03:15:47;;;;;;;10.13;8.03;;;;;;;7.85;91.77;98090.22;1690113;85;21044;-42
2022/09/19 03:18:16;;;;;;;12.50;9.05;;;;;;;7.87;91.91;98094.88;1689986;85;21008;-41
2022/09/19 03:20:49;;;;;;;14.50;9.58;;;;;;;7.87;91.16;98091.78;1690116;84;21068;-41
2022/09/19 03:23:29;;;;;;;14.45;9.65;;;;;;;7.77;91.56;98099.04;1690095;84;21075;-41
2022/09/19 03:25:54;;;;;;;16.45;9.23;;;;;;;7.78;91.61;98101.53;1689598;85;20989;-42
2022/09/19 03:28:21;;;;;;;11.10;9.05;;;;;;;7.76;91.55;98100.80;1721643;82;21528;-42
2022/09/19 03:30:47;;;;;;;13.05;9.40;;;;;;;7.74;91.73;98100.05;1724190;83;21046;-41
2022/09/19 03:33:15;;;;;;;11.03;8.90;;;;;;;7.75;91.89;98100.44;1723953;83;21044;-41
2022/09/19 03:35:40;;;;;;;;;;;;;;;7.76;91.87;98103.89;1726340;83;21551;-41
2022/09/19 03:38:06;;;;;;;12.40;8.90;;;;;;;7.68;92.07;98106.98;1724031;83;20101;-41
2022/09/19 03:40:32;;;;;;;12.25;8.53;;;;;;;7.71;92.01;98104.16;1723976;82;21484;-41
2022/09/19 03:42:58;;;;;;;11.20;8.53;;;;;;;7.69;92.37;98108.20;1728178;82;21031;-41
2022/09/19 03:45:24;;;;;;;13.88;8.88;;;;;;;7.75;92.22;98112.22;1698951;83;20978;-41
2022/09/19 03:47:50;;;;;;;12.43;8.40;;;;;;;7.79;92.00;98115.48;1699176;84;20998;-41
2022/09/19 03:50:17;;;;;;;16.15;8.50;;;;;;;7.75;91.90;98114.83;1698935;84;21025;-41
2022/09/19 03:52:47;;;;;;;12.68;8.60;;;;;;;7.80;91.69;98123.69;1699213;84;21483;-41
2022/09/19 03:55:10;;;;;;;;;;;;;;;7.84;91.55;98123.86;1700987;83;21026;-41
2022/09/19 03:57:38;;;;;;;12.05;8.03;;;;;;;7.80;91.75;98128.92;1699160;84;20112;-41
2022/09/19 04:00:05;;;;;;;12.60;7.55;;;;;;;7.81;92.08;98131.92;1699045;84;21037;-41
2022/09/19 04:02:30;;;;;;;8.60;7.57;;;;;;;7.85;91.76;98124.24;1699142;84;21045;-41
2022/09/19 04:04:56;;;;;;;9.90;7.10;;;;;;;7.88;91.04;98130.60;1698871;84;21026;-41
2022/09/19 04:07:22;;;;;;;9.10;7.50;;;;;;;7.75;91.55;98128.36;1698918;83;21002;-41
2022/09/19 04:09:47;;;;;;;12.30;7.95;;;;;;;7.78;91.32;98132.94;1698835;84;20997;-41
2022/09/19 04:12:13;;;;;;;12.73;7.15;;;;;;;7.77;91.43;98135.20;1699106;84;20998;-41
2022/09/19 04:14:39;;;;;;;9.48;7.58;;;;;;;7.78;91.27;98131.63;1698951;83;21005;-41
2022/09/19 04:17:07;;;;;;;15.55;7.72;;;;;;;7.76;91.39;98128.75;1698887;82;21006;-41
2022/09/19 04:19:33;;;;;;;14.65;7.60;;;;;;;7.85;91.57;98133.41;1698875;84;21014;-41
2022/09/19 04:22:01;;;;;;;11.33;7.33;;;;;;;7.88;91.52;98126.67;1698880;84;20997;-41
2022/09/19 04:24:26;;;;;;;;;;;;;;;7.85;91.70;98132.92;1701229;84;21471;-40
2022/09/19 04:26:52;;;;;;;10.95;6.45;;;;;;;7.81;91.52;98126.69;1698971;84;20116;-41
2022/09/19 04:29:19;;;;;;;10.35;7.30;;;;;;;7.77;91.82;98132.58;1698921;84;21463;-41
2022/09/19 04:31:46;;;;;;;10.32;7.62;;;;;;;7.77;92.18;98135.20;1699063;84;21058;-41
2022/09/19 04:34:14;;;;;;;11.65;7.35;;;;;;;7.82;91.99;98137.52;1698915;84;20994;-41
2022/09/19 04:36:40;;;;;;;16.75;8.08;;;;;;;7.90;91.14;98134.44;1698761;84;20990;-41
2022/09/19 04:39:06;;;;;;;11.12;7.30;;;;;;;7.85;91.47;98134.23;1699025;84;20970;-41
2022/09/19 04:41:34;;;;;;;8.95;7.28;;;;;;;7.88;91.81;98143.69;1699013;84;21041;-42
2022/09/19 04:44:01;;;;;;;11.73;7.28;;;;;;;7.94;91.55;98141.16;1699019;84;21037;-41
2022/09/19 04:46:28;;;;;;;26.30;7.78;;;;;;;7.91;91.93;98140.86;1698988;84;21005;-41
2022/09/19 04:48:57;;;;;;;12.03;7.62;;;;;;;7.96;91.68;98140.11;1698991;84;21455;-41
2022/09/19 04:51:24;;;;;;;9.80;7.00;;;;;;;7.98;91.89;98144.77;1698796;82;21009;-41
2022/09/19 04:53:51;;;;;;;10.53;6.77;;;;;;;7.99;91.59;98146.47;1699082;84;21045;-42
2022/09/19 04:56:18;;;;;;;10.93;7.03;;;;;;;8.06;91.38;98150.86;1698969;84;21486;-41
2022/09/19 04:58:45;;;;;;;8.35;6.62;;;;;;;8.05;91.35;98143.92;1698911;84;21033;-41
2022/09/19 05:01:13;;;;;;;10.00;6.92;;;;;;;8.10;91.07;98152.34;1698976;84;20997;-41
2022/09/19 05:03:43;;;;;;;7.90;6.83;;;;;;;8.10;91.31;98162.81;1698851;84;21002;-41
2022/09/19 05:06:07;;;;;;;8.90;7.20;;;;;;;8.15;90.79;98155.95;1698365;83;20994;-41
2022/09/19 05:08:33;;;;;;;9.58;6.67;;;;;;;8.14;91.04;98166.08;1698867;84;21040;-42
2022/09/19 05:11:02;;;;;;;8.63;7.12;;;;;;;8.11;90.54;98163.64;1698952;83;21519;-41
2022/09/19 05:13:32;;;;;;;9.33;7.22;;;;;;;8.16;90.26;98161.10;1698946;84;20967;-41
2022/09/19 05:16:00;;;;;;;9.93;6.67;;;;;;;8.16;90.63;98165.03;1698885;83;21042;-41
2022/09/19 05:18:27;;;;;;;9.30;6.37;;;;;;;8.12;90.71;98162.72;1698888;84;20994;-42
2022/09/19 05:20:55;;;;;;;10.80;7.08;;;;;;;8.12;90.54;98160.10;1698977;84;21035;-42
2022/09/19 05:23:23;;;;;;;9.90;6.70;;;;;;;8.20;90.69;98166.98;1698912;84;20995;-42
2022/09/19 05:25:53;;;;;;;10.88;6.78;;;;;;;8.22;90.38;98170.34;1698897;84;21009;-42
2022/09/19 05:28:26;;;;;;;11.53;7.17;;;;;;;8.12;90.86;98164.03;1698852;83;21014;-42
2022/09/19 05:30:54;;;;;;;12.05;7.25;;;;;;;8.23;90.45;98166.80;1698234;84;21448;-42
2022/09/19 05:33:26;;;;;;;10.43;7.70;;;;;;;8.25;90.40;98168.84;1698185;83;21038;-42
2022/09/19 05:35:44;;;;;;;;;;;;;;;8.33;90.23;98175.77;1700030;84;20990;-42
2022/09/19 05:38:10;;;;;;;12.60;7.67;;;;;;;8.23;90.79;98177.28;1698845;84;20109;-42
2022/09/19 05:40:36;;;;;;;11.08;7.80;;;;;;;8.34;90.46;98186.59;1698838;84;21001;-42
2022/09/19 05:43:03;;;;;;;11.03;7.37;;;;;;;8.32;90.67;98177.17;1693835;83;21011;-42
2022/09/19 05:45:29;;;;;;;9.55;7.70;;;;;;;8.32;90.34;98181.09;1688580;84;21038;-42
2022/09/19 05:48:06;;;;;;;12.50;7.50;;;;;;;8.39;90.22;98187.14;1688715;85;21602;-42
2022/09/19 05:50:33;;;;;;;9.50;8.43;;;;;;;8.41;90.38;98189.20;1688988;84;21006;-41
2022/09/19 05:55:43;;;;;;;9.13;8.20;;;;;;;8.53;89.71;98195.92;1688636;85;21429;-42
2022/09/19 05:58:09;;;;;;;9.78;8.60;;;;;;;8.50;89.48;98199.59;1688561;84;21006;-42
2022/09/19 06:00:37;;;;;;;13.22;8.50;;;;;;;8.56;89.35;98204.42;1688709;85;20994;-41
2022/09/19 06:03:06;;;;;;;12.20;8.63;;;;;;;8.66;89.07;98207.31;1688652;84;20975;-42
2022/09/19 06:05:41;;;;;;;9.13;8.15;;;;;;;8.70;89.00;98200.09;1688640;85;20994;-42
2022/09/19 06:08:07;;;;;;;10.30;8.53;;;;;;;8.67;87.94;98210.77;1688704;84;21006;-41
2022/09/19 06:10:38;;;;;;;10.98;8.28;;;;;;;8.64;87.60;98210.03;1688524;85;21050;-42
2022/09/19 06:13:13;;;;;;;11.95;7.80;;;;;;;8.70;87.92;98207.48;1688632;85;21050;-42
2022/09/19 06:15:39;;;;;;;9.88;7.83;;;;;;;8.73;87.54;98213.84;1688049;85;21009;-42
2022/09/19 06:18:05;;;;;;;7.87;7.12;;;;;;;8.78;87.57;98218.28;1688649;85;21467;-42
2022/09/19 06:20:31;;;;;;;9.30;7.40;;;;;;;8.66;86.90;98213.86;1688828;85;21159;-42
2022/09/19 06:23:03;;;;;;;8.63;7.72;;;;;;;8.72;86.92;98216.08;1688549;84;21002;-42
2022/09/19 06:25:30;;;;;;;10.00;7.55;;;;;;;8.73;86.76;98216.46;1688624;83;21041;-42
2022/09/19 06:27:59;;;;;;;12.13;7.72;;;;;;;8.70;86.81;98226.30;1688706;85;20963;-42
2022/09/19 06:30:26;;;;;;;10.88;8.50;;;;;;;8.67;87.04;98235.66;1688594;85;21510;-41
2022/09/19 06:32:53;;;;;;;;;;;;;;;8.59;87.15;98229.61;1691253;85;21038;-42
2022/09/19 06:35:21;;;;;;;9.10;8.00;;;;;;;8.67;87.37;98236.50;1688733;85;20149;-42
2022/09/19 06:37:48;;;;;;;9.33;8.38;;;;;;;8.60;86.80;98233.89;1688573;85;21014;-42
2022/09/19 06:40:22;;;;;;;10.75;8.03;;;;;;;8.70;86.90;98240.23;1688610;85;21007;-42
2022/09/19 06:42:44;;;;;;;10.23;8.48;;;;;;;8.77;86.76;98237.59;1686125;85;21007;-42
2022/09/19 06:45:10;;;;;;;12.82;8.75;;;;;;;8.79;86.48;98245.36;1681545;85;21475;-42
2022/09/19 06:47:36;;;;;;;9.00;8.13;;;;;;;8.83;86.40;98248.98;1681433;85;21045;-42
2022/09/19 06:50:04;;;;;;;9.70;7.30;;;;;;;8.85;85.96;98254.13;1681431;85;21019;-42
2022/09/19 06:52:30;;;;;;;13.18;8.98;;;;;;;8.87;85.06;98264.05;1681464;85;21038;-42
2022/09/19 06:54:58;;;;;;;14.28;8.60;;;;;;;8.71;84.36;98262.87;1681521;85;21482;-42
2022/09/19 06:57:24;;;;;;;12.60;7.80;;;;;;;8.68;84.63;98260.92;1681569;84;21010;-42
2022/09/19 06:59:50;;;;;;;12.73;8.73;;;;;;;8.72;84.39;98267.19;1681327;84;21035;-41
2022/09/19 07:02:15;;;;;;;9.05;8.15;;;;;;;8.68;84.31;98268.33;1681589;85;21492;-42
2022/09/19 07:04:41;;;;;;;9.23;8.28;;;;;;;8.62;83.79;98270.02;1681493;85;21495;-42
2022/09/19 07:07:07;;;;;;;10.50;8.38;;;;;;;8.74;84.36;98275.79;1681610;85;21117;-41
2022/09/19 07:09:33;;;;;;;11.38;7.40;;;;;;;8.82;84.32;98277.47;1681486;85;21463;-42
2022/09/19 07:12:01;;;;;;;10.35;9.35;;;;;;;8.83;84.00;98277.81;1681665;85;20997;-42
2022/09/19 07:14:26;;;;;;;;;;;;;;;8.94;84.11;98280.23;1683899;85;20987;-39
2022/09/19 07:16:52;;;;;;;9.35;7.97;;;;;;;8.96;84.02;98283.59;1681574;84;20463;-40
2022/09/19 07:19:18;;;;;;;11.43;9.33;;;;;;;8.98;84.09;98286.95;1681566;85;21026;-42
2022/09/19 07:21:44;;;;;;;12.00;9.25;;;;;;;9.03;83.88;98287.50;1681598;85;21019;-42
2022/09/19 07:24:10;;;;;;;10.43;8.80;;;;;;;9.08;83.59;98293.29;1681617;84;21011;-42
2022/09/19 07:26:35;;;;;;;10.55;8.95;;;;;;;9.11;83.28;98298.79;1681694;85;21042;-42
2022/09/19 07:29:01;;;;;;;11.30;9.23;;;;;;;9.13;82.93;98287.28;1681635;85;20980;-42
2022/09/19 07:31:28;;;;;;;9.83;8.65;;;;;;;9.18;82.56;98295.66;1681569;85;20983;-42
2022/09/19 07:33:54;;;;;;;13.07;9.27;;;;;;;9.22;82.88;98300.23;1681775;85;21003;-42
2022/09/19 07:36:21;;;;;;;10.48;8.38;;;;;;;9.25;82.78;98303.15;1681689;85;21480;-41
2022/09/19 07:38:51;;;;;;;9.33;8.10;;;;;;;9.31;82.89;98310.13;1681742;84;20995;-41
2022/09/19 07:41:17;;;;;;;8.65;7.60;;;;;;;9.26;82.33;98318.79;1681563;85;21014;-42
2022/09/19 07:43:44;;;;;;;7.78;7.08;;;;;;;9.20;81.53;98320.48;1695526;84;21653;-41
2022/09/19 07:46:14;;;;;;;7.67;6.87;;;;;;;9.12;81.64;98314.44;1702524;82;20990;-42
2022/09/19 07:48:38;;;;;;;10.38;8.15;;;;;;;9.17;81.59;98320.70;1701944;83;20998;-42
2022/09/19 07:51:05;;;;;;;8.83;6.65;;;;;;;9.10;81.87;98317.63;1701986;83;20967;-42
2022/09/19 07:53:31;;;;;;;9.85;7.12;;;;;;;9.10;81.72;98320.73;1702046;84;21033;-42
2022/09/19 07:55:57;;;;;;;8.95;7.00;;;;;;;9.18;82.03;98320.58;1702087;83;21523;-42
2022/09/19 07:58:26;;;;;;;8.85;7.10;;;;;;;9.25;81.86;98318.89;1702065;83;21534;-41
2022/09/19 08:00:53;;;;;;;10.08;6.78;;;;;;;9.38;81.88;98321.06;1701897;83;21006;-41
2022/09/19 08:03:20;;;;;;;9.73;6.33;;;;;;;9.31;81.31;98316.68;1702158;83;20990;-41
2022/09/19 08:05:51;;;;;;;8.30;6.67;;;;;;;9.46;81.59;98323.17;1702219;84;21048;-41
2022/09/19 08:08:21;;;;;;;9.25;6.35;;;;;;;9.47;81.31;98328.33;1702001;83;21526;-41
2022/09/19 08:10:46;;;;;;;10.13;7.45;;;;;;;9.56;81.55;98330.34;1702003;83;21495;-41
2022/09/19 08:13:15;;;;;;;8.35;7.42;;;;;;;9.47;81.33;98329.64;1702127;83;21025;-42
2022/09/19 08:15:44;;;;;;;7.15;5.92;;;;;;;9.55;81.69;98342.25;1701921;83;20998;-42
2022/09/19 08:18:17;;;;;;;6.65;5.47;;;;;;;9.43;81.21;98342.60;1702093;83;20993;-41
2022/09/19 08:20:44;;;;;;;10.05;6.42;;;;;;;9.44;81.39;98346.05;1700854;83;20974;-42
2022/09/19 08:23:16;;;;;;;8.17;6.60;;;;;;;9.60;81.18;98341.48;1701606;83;21029;-42
2022/09/19 08:25:46;;;;;;;11.00;6.87;;;;;;;9.71;80.86;98349.95;1701505;83;21704;-42
2022/09/19 08:28:11;;;;;;;8.40;6.40;;;;;;;9.80;80.10;98349.33;1701572;83;20998;-42
2022/09/19 08:30:37;;;;;;;7.20;6.15;;;;;;;9.99;80.14;98355.03;1701781;83;21006;-42
2022/09/19 08:33:06;;;;;;;6.55;5.83;;;;;;;10.08;79.02;98354.89;1702067;83;20974;-42
2022/09/19 08:35:37;;;;;;;7.67;5.47;;;;;;;10.28;78.52;98352.20;1701840;83;20986;-42
2022/09/19 08:38:04;;;;;;;;;;;;;;;10.41;77.60;98354.85;1703771;84;21479;-42
2022/09/19 08:40:31;;;;;;;5.80;4.47;;;;;;;10.47;75.46;98347.01;1701299;84;20393;-42
2022/09/19 08:43:24;;;;;;;8.75;5.87;;;;;;;10.59;75.95;98356.67;1701792;83;21467;-42
2022/09/19 08:46:33;;;;;;;6.30;5.20;;;;;;;10.76;75.38;98357.61;1700642;83;21047;-40
2022/09/19 08:49:19;;;;;;;7.60;5.20;;;;;;;10.94;75.47;98353.32;1701632;84;21030;-40
2022/09/19 08:51:56;;;;;;;7.08;5.78;;;;;;;11.01;74.68;98347.98;1701490;84;21006;-41
2022/09/19 08:54:35;;;;;;;7.67;6.15;;;;;;;10.94;73.98;98355.95;1702024;83;21002;-40
2022/09/19 08:57:02;;;;;;;8.80;6.20;;;;;;;11.16;74.24;98363.61;1706846;83;21004;-41
2022/09/19 08:59:37;;;;;;;6.58;5.92;;;;;;;11.11;74.74;98360.84;1718975;83;21040;-41
2022/09/19 09:02:24;;;;;;;11.10;7.87;;;;;;;11.03;74.54;98360.55;1727035;83;20999;-41
2022/09/19 09:04:54;;;;;;;10.00;7.33;;;;;;;11.02;74.68;98362.80;1728142;81;21442;-41
2022/09/19 09:07:48;;;;;;;7.20;6.50;;;;;;;11.01;75.06;98365.08;1728290;83;20991;-41
2022/09/19 09:10:55;;;;;;;7.00;6.08;;;;;;;10.98;75.04;98364.47;1728179;83;20991;-41
2022/09/19 09:13:36;;;;;;;7.72;6.55;;;;;;;10.83;75.00;98375.61;1728152;83;21054;-41
2022/09/19 09:16:31;;;;;;;7.53;5.83;;;;;;;10.73;75.16;98367.06;1716387;83;20995;-41
2022/09/19 09:19:35;;;;;;;12.37;5.42;;;;;;;10.82;75.34;98362.08;1728142;83;21003;-41
2022/09/19 09:22:16;;;;;;;8.15;5.25;;;;;;;10.94;73.93;98367.78;1728154;83;20975;-41
2022/09/19 09:24:45;;;;;;;7.50;4.72;;;;;;;11.02;73.23;98372.01;1715330;83;21058;-41
2022/09/19 09:27:17;;;;;;;5.45;4.60;;;;;;;11.19;73.97;98362.05;1701238;84;20986;-42
2022/09/19 09:29:52;;;;;;;6.65;4.72;;;;;;;11.22;71.62;98367.94;1701487;83;21018;-42
2022/09/19 09:32:30;;;;;;;6.05;4.35;;;;;;;11.46;72.96;98371.91;1699494;84;20970;-41
2022/09/19 09:35:26;;;;;;;5.20;4.17;;;;;;;11.41;71.84;98374.52;1701173;84;21006;-41
2022/09/19 09:38:08;;;;;;;8.20;6.15;;;;;;;11.47;71.77;98376.20;1701453;83;21503;-41
2022/09/19 09:43:50;;;;;;;8.88;4.10;;;;;;;11.50;72.25;98383.05;1696133;83;21015;-41
2022/09/19 09:46:25;;;;;;;7.35;5.00;;;;;;;11.36;71.17;98395.06;1676899;84;20979;-42
2022/09/19 09:48:52;;;;;;;6.62;4.80;;;;;;;11.29;71.33;98386.77;1681380;84;21547;-41
2022/09/19 09:51:42;;;;;;;8.53;4.42;;;;;;;11.31;71.42;98405.45;1681374;84;20987;-42
2022/09/19 09:57:40;;;;;;;7.67;5.10;;;;;;;11.34;70.99;98401.75;1681237;85;20991;-42
2022/09/19 10:03:39;;;;;;;7.67;4.70;;;;;;;11.41;70.64;98395.09;1680375;85;21102;-41
2022/09/19 10:06:35;;;;;;;8.60;6.67;;;;;;;11.55;70.86;98402.44;1680838;85;21103;-42
2022/09/19 10:09:12;;;;;;;6.72;4.70;;;;;;;11.67;70.80;98413.39;1680223;85;21511;-41
2022/09/19 10:12:06;;;;;;;8.25;4.10;;;;;;;11.65;70.32;98417.45;1680421;85;21034;-41
2022/09/19 10:14:38;;;;;;;14.05;7.85;;;;;;;11.73;70.10;98411.61;1681171;85;21063;-41
2022/09/19 10:17:06;;;;;;;14.23;6.78;;;;;;;11.59;69.74;98420.55;1732147;82;21023;-41
2022/09/19 10:19:45;;;;;;;10.63;6.83;;;;;;;11.68;70.07;98421.19;1737703;82;21485;-40
2022/09/19 10:22:15;;;;;;;9.90;6.28;;;;;;;11.73;69.68;98416.88;1737528;82;21039;-41
2022/09/19 10:24:56;;;;;;;9.85;6.47;;;;;;;11.78;69.77;98419.19;1736651;82;21091;-40
2022/09/19 10:27:38;;;;;;;25.57;13.53;;;;;;;11.84;69.52;98422.22;1737265;82;21489;-41
2022/09/19 10:30:20;;;;;;;62.83;31.37;;;;;;;11.86;69.76;98426.89;1737056;82;21076;-41
2022/09/19 10:32:47;;;;;;;30.50;18.40;;;;;;;11.83;69.16;98428.91;1737335;82;21481;-40
2022/09/19 10:35:35;;;;;;;;;;;;;;;11.69;69.08;98429.92;1740150;82;20984;-40
2022/09/19 10:38:05;;;;;;;6.65;5.17;;;;;;;11.48;69.55;98423.97;1737525;82;20127;-40
2022/09/19 10:40:32;;;;;;;7.22;5.12;;;;;;;11.51;69.85;98421.13;1737664;82;21512;-41
2022/09/19 10:43:01;;;;;;;4.62;4.22;;;;;;;11.48;70.37;98415.23;1737659;82;21004;-41
2022/09/19 10:45:32;;;;;;;6.17;4.58;;;;;;;11.46;70.05;98420.61;1751378;82;21567;-40
2022/09/19 10:48:11;;;;;;;7.22;4.80;;;;;;;11.34;70.28;98421.49;1753545;82;20983;-41
2022/09/19 10:50:47;;;;;;;5.65;4.30;;;;;;;11.37;70.56;98424.37;1753553;82;21054;-41
2022/09/19 10:53:26;;;;;;;7.83;4.50;;;;;;;11.36;70.53;98423.53;1753744;82;21002;-42
2022/09/19 10:55:52;;;;;;;8.53;4.90;;;;;;;11.36;70.68;98429.28;1753292;82;20999;-41
2022/09/19 10:58:26;;;;;;;7.60;4.30;;;;;;;11.39;70.77;98430.36;1753394;82;21488;-41
2022/09/19 11:01:01;;;;;;;5.12;3.60;;;;;;;11.35;70.71;98423.19;1753297;82;21006;-42
2022/09/19 11:03:31;;;;;;;3.62;3.33;;;;;;;11.32;70.76;98426.03;1753461;82;20971;-41
2022/09/19 11:06:12;;;;;;;10.90;5.20;;;;;;;11.24;70.45;98422.64;1753470;82;21493;-41
2022/09/19 11:08:45;;;;;;;5.08;3.40;;;;;;;11.23;70.26;98420.95;1752837;82;21595;-41
2022/09/19 11:11:37;;;;;;;3.75;3.15;;;;;;;11.12;69.78;98424.83;1753375;82;21003;-41
2022/09/19 11:14:31;;;;;;;3.47;3.20;;;;;;;11.20;70.38;98419.84;1753534;82;21346;-41
2022/09/19 11:17:18;;;;;;;10.75;6.80;;;;;;;11.29;70.40;98424.92;1752883;82;21018;-42
2022/09/19 11:20:07;;;;;;;7.72;4.72;;;;;;;11.31;70.40;98423.02;1753292;82;20987;-41
2022/09/19 11:23:21;;;;;;;7.33;4.30;;;;;;;11.21;70.27;98429.44;1752957;82;20968;-41
2022/09/19 11:26:20;;;;;;;7.70;5.05;;;;;;;11.16;70.94;98420.19;1748745;81;21037;-42
2022/09/19 11:28:55;;;;;;;3.52;3.22;;;;;;;11.30;70.74;98416.92;1746039;82;21074;-41
2022/09/19 11:32:06;;;;;;;4.65;3.25;;;;;;;11.40;70.96;98425.47;1743032;82;20999;-42
2022/09/19 11:34:48;;;;;;;5.20;3.50;;;;;;;11.39;70.94;98427.27;1745936;82;21002;-42
2022/09/19 11:37:29;;;;;;;8.15;3.45;;;;;;;11.38;70.97;98432.64;1745766;82;21023;-42
2022/09/19 11:40:35;;;;;;;7.17;3.20;;;;;;;11.36;69.83;98436.70;1745189;82;21023;-41
2022/09/19 11:43:35;;;;;;;4.05;2.80;;;;;;;11.47;70.52;98427.54;1745977;82;21551;-41
2022/09/19 11:46:31;;;;;;;3.08;2.42;;;;;;;11.50;70.48;98438.34;1744148;82;21183;-41
2022/09/19 11:49:08;;;;;;;3.12;2.77;;;;;;;11.40;70.43;98431.56;1724740;82;21449;-43
2022/09/19 11:51:51;;;;;;;3.90;2.83;;;;;;;11.39;70.70;98431.67;1709191;82;20991;-42
2022/09/19 11:54:35;;;;;;;4.08;2.62;;;;;;;11.30;70.73;98431.88;1741612;82;21470;-42
2022/09/19 11:57:38;;;;;;;6.72;3.10;;;;;;;11.32;71.04;98436.56;1715559;82;21512;-41
2022/09/19 12:00:12;;;;;;;5.47;2.47;;;;;;;11.31;70.98;98433.09;1717727;82;21040;-43
2022/09/19 12:03:11;;;;;;;5.05;3.15;;;;;;;11.34;71.30;98439.44;1718122;83;20997;-42
2022/09/19 12:06:07;;;;;;;15.70;9.83;;;;;;;11.37;71.07;98441.48;1718062;83;21117;-42
2022/09/19 12:09:00;;;;;;;54.55;30.70;;;;;;;11.32;71.43;98443.97;1717591;83;21012;-41
2022/09/19 12:11:50;;;;;;;15.60;10.78;;;;;;;11.30;71.36;98432.72;1715302;83;21005;-42
2022/09/19 12:14:28;;;;;;;5.15;3.58;;;;;;;11.23;71.34;98438.05;1718172;83;21024;-41
2022/09/19 12:17:04;;;;;;;4.03;3.20;;;;;;;11.21;71.27;98440.45;1715686;83;21055;-41
2022/09/19 12:19:45;;;;;;;5.50;3.15;;;;;;;11.16;71.69;98441.24;1717970;83;21072;-41
2022/09/19 12:22:25;;;;;;;4.92;3.12;;;;;;;11.05;71.97;98445.95;1717946;83;21397;-40
2022/09/19 12:25:08;;;;;;;4.15;3.47;;;;;;;11.10;72.02;98441.20;1718115;83;21561;-41
2022/09/19 12:27:56;;;;;;;4.67;3.15;;;;;;;11.08;72.27;98440.00;1718197;83;21596;-42